Time;durP1;ratioP1;P1;durP2;ratioP2;P2;SDS_P1;SDS_P2;PMS_P1;PMS_P2;Temp;Humidity;BMP_temperature;BMP_pressure;BME280_temperature;BME280_humidity;BME280_pressure;Samples;Min_cycle;Max_cycle;Signal;HPM_P1;HPM_P2
2022/07/29 00:00:21;;;;;;;3.22;1.08;;;;;;;16.94;56.33;101569.34;5026999;28;20415;-73
2022/07/29 00:02:46;;;;;;;3.17;1.00;;;;;;;16.90;56.59;101562.53;5028194;28;20025;-73
2022/07/29 00:05:13;;;;;;;2.40;1.17;;;;;;;16.89;56.65;101558.19;5028648;28;20449;-73
2022/07/29 00:07:39;;;;;;;1.95;1.17;;;;;;;16.87;56.87;101557.41;5027197;28;20017;-74
2022/07/29 00:10:04;;;;;;;3.28;1.10;;;;;;;16.84;56.60;101556.59;5029605;28;20029;-74
2022/07/29 00:12:29;;;;;;;3.83;1.27;;;;;;;16.82;56.97;101560.22;5025944;28;20535;-73
2022/07/29 00:14:55;;;;;;;3.05;1.30;;;;;;;16.79;57.40;101568.22;5025664;28;20036;-73
2022/07/29 00:17:22;;;;;;;1.90;1.17;;;;;;;16.79;56.94;101565.59;5026190;28;20083;-73
2022/07/29 00:19:47;;;;;;;2.10;1.00;;;;;;;16.79;56.48;101558.53;5023544;28;20021;-73
2022/07/29 00:22:12;;;;;;;2.50;1.05;;;;;;;16.80;57.01;101559.41;5021532;28;20497;-73
2022/07/29 00:24:38;;;;;;;1.80;1.20;;;;;;;16.78;57.03;101559.47;5025667;28;20029;-73
2022/07/29 00:27:03;;;;;;;2.75;1.02;;;;;;;16.79;56.70;101550.66;5024976;28;20112;-74
2022/07/29 00:29:28;;;;;;;2.67;1.20;;;;;;;16.81;56.60;101546.19;5026940;28;20028;-73
2022/07/29 00:31:54;;;;;;;3.08;1.20;;;;;;;16.80;56.47;101549.75;5026664;28;20033;-74
2022/07/29 00:37:03;;;;;;;3.97;1.08;;;;;;;16.83;56.50;101547.00;5027704;28;20091;-74
2022/07/29 00:39:29;;;;;;;3.60;1.20;;;;;;;16.81;57.08;101551.47;5023684;28;20496;-74
2022/07/29 00:41:54;;;;;;;2.17;1.20;;;;;;;16.77;56.64;101544.59;5025440;28;20041;-73
2022/07/29 00:44:19;;;;;;;2.17;1.00;;;;;;;16.75;57.54;101550.84;5023087;28;20033;-73
2022/07/29 00:46:45;;;;;;;3.63;1.05;;;;;;;16.73;57.40;101553.56;5025275;28;20025;-73
2022/07/29 00:49:10;;;;;;;2.28;1.10;;;;;;;16.68;58.15;101552.88;5025902;28;20083;-73
2022/07/29 00:51:37;;;;;;;2.05;1.00;;;;;;;16.67;58.35;101559.03;5026849;28;20109;-73
2022/07/29 00:54:03;;;;;;;2.22;1.15;;;;;;;16.63;58.86;101563.56;5026822;28;21020;-73
2022/07/29 00:56:32;;;;;;;3.10;1.08;;;;;;;16.59;60.16;101566.38;5026982;28;20022;-73
2022/07/29 00:58:58;;;;;;;2.67;1.25;;;;;;;16.56;60.89;101571.75;5025132;28;20065;-73
2022/07/29 01:01:24;;;;;;;4.93;1.30;;;;;;;16.47;60.73;101584.31;5023718;28;20033;-74
2022/07/29 01:03:49;;;;;;;3.95;1.42;;;;;;;16.45;61.73;101601.06;5024379;28;20044;-73
2022/07/29 01:06:16;;;;;;;2.17;1.02;;;;;;;16.40;61.98;101609.09;5025487;28;20033;-74
2022/07/29 01:08:47;;;;;;;3.88;1.40;;;;;;;16.35;60.81;101622.41;5023046;28;20047;-74
2022/07/29 01:11:14;;;;;;;6.80;1.40;;;;;;;16.32;60.71;101633.03;5025688;28;20109;-74
2022/07/29 01:13:41;;;;;;;2.28;1.58;;;;;;;16.32;60.75;101640.91;5024978;28;20061;-74
2022/07/29 01:16:27;;;;;;;4.28;1.30;;;;;;;16.24;60.14;101614.09;5027831;28;20018;-74
2022/07/29 01:19:00;;;;;;;4.30;1.33;;;;;;;16.21;61.19;101615.06;5023690;28;20028;-73
2022/07/29 01:21:52;;;;;;;4.30;1.30;;;;;;;16.21;60.85;101622.94;5025715;28;20126;-73
2022/07/29 01:24:33;;;;;;;3.22;1.40;;;;;;;16.16;61.08;101605.63;5023580;28;20030;-73
2022/07/29 01:27:03;;;;;;;2.58;1.20;;;;;;;16.15;62.02;101591.66;5024908;28;20068;-73
2022/07/29 01:29:52;;;;;;;3.25;1.23;;;;;;;16.15;61.96;101596.91;5028526;28;20076;-73
2022/07/29 01:32:22;;;;;;;4.55;1.45;;;;;;;16.13;62.49;101588.22;5024872;28;20025;-73
2022/07/29 01:34:53;;;;;;;3.42;1.48;;;;;;;16.17;62.77;101571.47;5023840;28;20121;-73
2022/07/29 01:37:28;;;;;;;3.53;1.50;;;;;;;16.18;63.10;101567.06;5024726;28;20567;-73
2022/07/29 01:39:56;;;;;;;3.40;1.38;;;;;;;16.19;62.99;101546.00;5026425;28;20370;-73
2022/07/29 01:42:35;;;;;;;5.00;1.60;;;;;;;16.26;62.58;101530.00;5029476;28;20043;-74
2022/07/29 01:45:19;;;;;;;3.67;1.45;;;;;;;16.24;62.85;101523.03;5031844;28;20029;-74
2022/07/29 01:47:55;;;;;;;3.50;1.52;;;;;;;16.15;66.14;101533.91;5031812;28;20060;-73
2022/07/29 01:50:26;;;;;;;2.90;1.67;;;;;;;16.03;66.98;101527.34;5030669;28;20025;-73
2022/07/29 01:53:00;;;;;;;3.97;1.42;;;;;;;15.88;66.01;101513.06;5030890;28;20448;-73
2022/07/29 01:55:29;;;;;;;3.55;1.63;;;;;;;15.74;69.23;101512.66;5029901;28;20056;-74
2022/07/29 01:57:57;;;;;;;5.05;2.00;;;;;;;15.59;70.86;101507.06;5030640;28;20021;-73
2022/07/29 02:00:23;;;;;;;4.60;1.90;;;;;;;15.46;71.87;101506.63;5030934;28;20037;-73
2022/07/29 02:02:50;;;;;;;2.70;1.77;;;;;;;15.39;73.01;101497.28;5029494;28;20034;-73
2022/07/29 02:05:18;;;;;;;3.80;1.60;;;;;;;15.33;73.17;101484.38;5027305;28;20114;-73
2022/07/29 02:07:47;;;;;;;3.70;2.15;;;;;;;15.30;72.33;101480.13;5028651;28;20022;-73
2022/07/29 02:10:14;;;;;;;4.90;2.00;;;;;;;15.24;73.63;101485.56;5030312;28;20028;-74
2022/07/29 02:12:42;;;;;;;4.30;1.70;;;;;;;15.17;71.93;101489.34;5030151;28;20036;-73
2022/07/29 02:15:09;;;;;;;4.50;1.63;;;;;;;15.10;72.51;101493.94;5032847;28;20029;-73
2022/07/29 02:17:40;;;;;;;3.67;1.98;;;;;;;14.96;72.44;101490.91;5030795;28;20451;-73
2022/07/29 02:20:07;;;;;;;8.25;1.98;;;;;;;14.85;74.67;101489.50;5028723;28;20162;-73
2022/07/29 02:22:37;;;;;;;4.07;1.77;;;;;;;14.86;74.33;101479.88;5031028;28;20051;-74
2022/07/29 02:25:04;;;;;;;2.53;1.65;;;;;;;14.90;73.92;101480.66;5028696;28;20025;-73
2022/07/29 02:27:30;;;;;;;3.92;1.45;;;;;;;14.97;73.10;101496.09;5030723;28;20025;-74
2022/07/29 02:30:00;;;;;;;2.97;1.60;;;;;;;14.95;72.67;101492.69;5028971;28;20025;-74
2022/07/29 02:32:27;;;;;;;3.42;1.67;;;;;;;14.93;74.08;101497.09;5030447;28;20033;-73
2022/07/29 02:34:52;;;;;;;3.17;1.50;;;;;;;14.97;72.97;101483.00;5045147;28;20029;-73
2022/07/29 02:37:18;;;;;;;2.28;1.40;;;;;;;15.17;72.32;101457.88;5029186;28;20096;-73
2022/07/29 02:39:45;;;;;;;2.50;1.60;;;;;;;15.40;71.42;101453.56;5028424;28;20025;-73
2022/07/29 02:42:14;;;;;;;3.33;1.65;;;;;;;15.49;71.22;101468.97;5029450;28;20036;-73
2022/07/29 02:44:39;;;;;;;2.85;1.60;;;;;;;15.39;71.05;101462.34;5027735;28;20059;-73
2022/07/29 02:47:27;;;;;;;6.15;1.83;;;;;;;15.29;70.83;101461.81;5031341;28;20025;-73
2022/07/29 02:50:14;;;;;;;3.25;1.77;;;;;;;15.19;70.13;101463.94;5028832;28;20108;-73
2022/07/29 02:53:12;;;;;;;4.43;1.90;;;;;;;15.16;69.72;101451.75;5029138;28;20477;-73
2022/07/29 02:55:45;;;;;;;4.80;1.55;;;;;;;15.16;72.31;101443.91;5017158;28;20041;-74
2022/07/29 02:58:34;;;;;;;4.63;1.90;;;;;;;15.09;70.92;101452.03;5028358;28;20056;-73
2022/07/29 03:01:08;;;;;;;4.80;2.03;;;;;;;14.95;72.92;101456.00;5027476;28;20015;-74
2022/07/29 03:03:37;;;;;;;2.47;1.70;;;;;;;14.81;74.34;101463.47;5028364;28;20124;-73
2022/07/29 03:06:04;;;;;;;3.90;1.90;;;;;;;14.70;74.63;101463.81;5028241;28;20053;-73
2022/07/29 03:08:32;;;;;;;4.40;2.15;;;;;;;14.59;75.77;101472.00;5030562;28;20037;-74
2022/07/29 03:10:57;;;;;;;5.28;2.50;;;;;;;14.49;76.25;101462.75;5029790;28;20491;-74
2022/07/29 03:13:23;;;;;;;4.60;2.30;;;;;;;14.40;76.76;101456.88;5029674;28;20037;-73
2022/07/29 03:15:49;;;;;;;3.30;2.10;;;;;;;14.37;76.90;101461.38;5028789;28;20017;-73
2022/07/29 03:18:15;;;;;;;6.40;2.10;;;;;;;14.33;76.94;101465.84;5027636;28;20380;-73
2022/07/29 03:20:41;;;;;;;4.75;2.22;;;;;;;14.31;77.30;101472.03;5028890;28;20029;-73
2022/07/29 03:23:08;;;;;;;4.57;2.13;;;;;;;14.32;75.95;101463.25;5026511;28;20134;-73
2022/07/29 03:25:33;;;;;;;4.45;2.17;;;;;;;14.31;75.88;101467.66;5028944;28;20472;-73
2022/07/29 03:27:59;;;;;;;3.67;2.10;;;;;;;14.30;76.37;101479.03;5031353;28;20152;-74
2022/07/29 03:30:25;;;;;;;3.17;2.22;;;;;;;14.25;76.72;101483.53;5029490;28;20033;-73
2022/07/29 03:32:51;;;;;;;3.40;2.45;;;;;;;14.24;77.81;101479.22;5028889;28;20056;-73
2022/07/29 03:35:17;;;;;;;3.80;2.30;;;;;;;14.20;78.25;101472.34;5027172;28;20022;-73
2022/07/29 03:37:43;;;;;;;3.63;2.40;;;;;;;14.19;79.43;101474.13;5025596;28;20144;-73
2022/07/29 03:40:12;;;;;;;3.95;2.40;;;;;;;14.15;78.72;101471.66;5026687;28;20029;-73
2022/07/29 03:42:41;;;;;;;2.90;2.40;;;;;;;14.12;79.28;101477.81;5026429;28;20033;-73
2022/07/29 03:45:10;;;;;;;3.72;2.65;;;;;;;14.12;80.13;101483.06;5030722;28;20483;-73
2022/07/29 03:47:40;;;;;;;3.83;2.50;;;;;;;14.14;80.49;101493.50;5027512;28;20029;-73
2022/07/29 03:50:08;;;;;;;4.15;2.60;;;;;;;14.10;80.46;101504.03;5027194;28;20033;-73
2022/07/29 03:52:34;;;;;;;4.85;2.78;;;;;;;14.10;81.12;101497.94;5025664;28;20388;-73
2022/07/29 03:55:00;;;;;;;4.90;2.53;;;;;;;14.14;79.66;101490.88;5029901;28;20021;-74
2022/07/29 03:57:29;;;;;;;3.72;2.33;;;;;;;14.16;79.42;101483.84;5026552;28;20029;-74
2022/07/29 03:59:55;;;;;;;4.72;2.58;;;;;;;14.14;80.10;101480.41;5027628;28;20025;-73
2022/07/29 04:02:21;;;;;;;4.15;2.35;;;;;;;14.13;80.25;101474.28;5029133;28;20032;-74
2022/07/29 04:04:46;;;;;;;3.30;2.08;;;;;;;14.11;80.29;101466.50;5026904;28;20021;-73
2022/07/29 04:07:13;;;;;;;3.70;2.33;;;;;;;14.08;81.52;101474.44;5024765;28;20395;-74
2022/07/29 04:09:39;;;;;;;4.82;2.33;;;;;;;14.06;80.76;101478.88;5027523;28;20026;-74
2022/07/29 04:12:04;;;;;;;4.32;2.15;;;;;;;14.11;80.82;101482.22;5028111;28;20043;-73
2022/07/29 04:14:31;;;;;;;6.38;2.40;;;;;;;14.15;79.46;101476.88;5027325;28;20037;-73
2022/07/29 04:16:56;;;;;;;5.28;2.47;;;;;;;14.15;80.97;101484.75;5025231;28;20032;-73
2022/07/29 04:19:22;;;;;;;3.88;2.40;;;;;;;14.16;80.53;101487.28;5024920;28;20076;-74
2022/07/29 04:21:47;;;;;;;3.67;2.28;;;;;;;14.16;79.90;101487.28;5028029;28;20029;-73
2022/07/29 04:24:13;;;;;;;2.80;2.08;;;;;;;14.24;78.93;101487.06;5027571;28;20060;-73
2022/07/29 04:26:38;;;;;;;4.00;2.08;;;;;;;14.31;78.44;101478.13;5026810;28;20083;-73
2022/07/29 04:29:03;;;;;;;4.82;2.20;;;;;;;14.29;78.49;101479.06;5022726;28;20041;-73
2022/07/29 04:31:28;;;;;;;3.88;2.45;;;;;;;14.26;78.69;101477.41;5023575;28;20017;-73
2022/07/29 04:33:54;;;;;;;4.63;2.10;;;;;;;14.24;78.95;101481.81;5027008;28;20113;-74
2022/07/29 04:36:19;;;;;;;4.25;2.50;;;;;;;14.24;78.49;101471.34;5026602;28;20025;-73
2022/07/29 04:38:44;;;;;;;4.43;2.55;;;;;;;14.24;78.95;101474.84;5023764;28;20060;-73
2022/07/29 04:41:09;;;;;;;5.80;2.90;;;;;;;14.21;79.43;101489.75;5027405;28;20076;-73
2022/07/29 04:43:35;;;;;;;4.13;2.92;;;;;;;14.18;79.93;101498.56;5028155;28;20472;-74
2022/07/29 04:46:02;;;;;;;3.20;2.58;;;;;;;14.17;78.74;101501.25;5027748;28;20061;-74
2022/07/29 04:48:27;;;;;;;3.83;2.72;;;;;;;14.16;79.26;101515.25;5027336;28;20036;-74
2022/07/29 04:50:52;;;;;;;4.53;2.85;;;;;;;14.24;78.77;101513.22;5027089;28;20029;-74
2022/07/29 04:53:18;;;;;;;3.72;2.20;;;;;;;14.39;78.69;101512.75;5027353;28;20053;-73
2022/07/29 04:55:44;;;;;;;3.45;2.08;;;;;;;14.63;77.26;101523.38;5025496;28;20033;-73
2022/07/29 04:58:09;;;;;;;3.80;2.25;;;;;;;14.75;76.52;101509.06;5027349;28;20125;-74
2022/07/29 05:00:35;;;;;;;3.25;2.15;;;;;;;14.90;75.83;101507.69;5028791;28;20116;-74
2022/07/29 05:03:00;;;;;;;4.53;2.30;;;;;;;15.03;75.24;101503.75;5028266;28;20029;-73
2022/07/29 05:05:25;;;;;;;3.47;2.20;;;;;;;15.12;74.85;101506.97;5027658;28;20079;-73
2022/07/29 05:07:51;;;;;;;4.38;2.33;;;;;;;15.17;74.58;101513.75;5027908;28;20033;-73
2022/07/29 05:10:16;;;;;;;4.07;2.30;;;;;;;15.22;74.15;101520.63;5026588;28;20036;-73
2022/07/29 05:12:41;;;;;;;3.53;2.00;;;;;;;15.21;74.05;101525.00;5028085;28;20060;-73
2022/07/29 05:15:07;;;;;;;3.75;2.35;;;;;;;15.19;74.51;101529.44;5025333;28;20388;-73
2022/07/29 05:17:33;;;;;;;3.33;2.38;;;;;;;15.21;74.39;101521.53;5029816;28;20037;-73
2022/07/29 05:19:58;;;;;;;3.47;2.20;;;;;;;15.18;74.32;101525.97;5030254;28;20056;-74
2022/07/29 05:22:23;;;;;;;5.00;2.50;;;;;;;15.16;74.66;101533.00;5033315;28;20029;-73
2022/07/29 05:24:49;;;;;;;3.28;2.30;;;;;;;15.21;74.74;101538.09;5029825;28;20040;-74
2022/07/29 05:27:14;;;;;;;2.85;1.92;;;;;;;15.31;73.79;101542.13;5034055;28;20485;-73
2022/07/29 05:29:39;;;;;;;4.53;2.40;;;;;;;15.37;73.90;101527.09;5028821;28;20033;-73
2022/07/29 05:32:05;;;;;;;3.53;2.08;;;;;;;15.40;73.96;101533.09;5032343;28;20483;-73
2022/07/29 05:34:31;;;;;;;4.55;2.30;;;;;;;15.46;73.48;101542.50;5032496;28;20039;-73
2022/07/29 05:36:56;;;;;;;4.88;2.17;;;;;;;15.47;73.49;101520.63;5030460;28;20484;-73
2022/07/29 05:39:22;;;;;;;4.53;2.47;;;;;;;15.42;73.89;101519.91;5029108;28;20052;-73
2022/07/29 05:41:47;;;;;;;4.07;2.53;;;;;;;15.40;73.58;101530.47;5033363;28;20032;-73
2022/07/29 05:44:13;;;;;;;5.47;2.70;;;;;;;15.42;73.29;101530.41;5032806;28;20037;-73
2022/07/29 05:46:38;;;;;;;3.20;2.28;;;;;;;15.43;73.29;101529.50;5032674;28;20126;-73
2022/07/29 05:49:06;;;;;;;2.92;2.10;;;;;;;15.51;73.08;101527.47;5030530;28;20045;-73
2022/07/29 05:51:31;;;;;;;4.07;2.40;;;;;;;15.58;73.22;101535.97;5032648;28;20444;-73
2022/07/29 05:53:56;;;;;;;5.20;2.55;;;;;;;15.56;73.67;101533.38;5029833;28;20464;-73
2022/07/29 05:56:22;;;;;;;3.50;2.58;;;;;;;15.59;73.26;101533.28;5030173;28;20173;-73
2022/07/29 05:58:47;;;;;;;3.30;2.47;;;;;;;15.61;72.88;101541.97;5030899;28;20389;-74
2022/07/29 06:01:12;;;;;;;4.22;2.30;;;;;;;15.71;72.32;101536.41;5031304;28;20029;-73
2022/07/29 06:03:37;;;;;;;4.13;2.53;;;;;;;15.78;72.30;101533.50;5030691;28;20157;-73
2022/07/29 06:06:03;;;;;;;4.60;2.53;;;;;;;15.77;72.08;101536.16;5031008;28;20029;-73
2022/07/29 06:08:28;;;;;;;3.55;2.58;;;;;;;15.74;72.61;101528.38;5029998;28;20020;-73
2022/07/29 06:10:54;;;;;;;6.20;2.90;;;;;;;15.70;73.05;101526.81;5029997;28;20052;-73
2022/07/29 06:13:19;;;;;;;3.78;2.78;;;;;;;15.67;73.01;101529.53;5030518;28;20385;-73
2022/07/29 06:15:44;;;;;;;4.15;2.70;;;;;;;15.68;72.81;101533.88;5030322;28;20468;-73
2022/07/29 06:18:10;;;;;;;4.78;2.70;;;;;;;15.71;72.23;101536.41;5030100;28;20033;-73
2022/07/29 06:20:36;;;;;;;5.30;2.45;;;;;;;15.76;71.85;101531.81;5029850;28;20025;-73
2022/07/29 06:23:04;;;;;;;4.47;3.10;;;;;;;15.77;71.56;101531.78;5029759;28;20029;-73
2022/07/29 06:25:30;;;;;;;5.68;2.63;;;;;;;15.80;72.16;101530.81;5026911;28;20543;-74
2022/07/29 06:27:55;;;;;;;4.20;2.90;;;;;;;15.83;72.36;101540.31;5029334;28;20021;-74
2022/07/29 06:30:20;;;;;;;3.40;2.63;;;;;;;15.93;72.02;101539.94;5027471;28;20060;-74
2022/07/29 06:32:46;;;;;;;3.70;2.60;;;;;;;16.00;71.35;101542.38;5029074;28;20144;-73
2022/07/29 06:35:11;;;;;;;3.80;2.72;;;;;;;15.98;71.50;101547.66;5029808;28;20033;-73
2022/07/29 06:37:37;;;;;;;4.35;2.97;;;;;;;15.98;72.17;101549.44;5030571;28;20111;-73
2022/07/29 06:42:47;;;;;;;4.00;2.60;;;;;;;16.05;71.05;101541.28;5027751;28;20102;-73
2022/07/29 06:45:13;;;;;;;4.63;2.20;;;;;;;16.18;70.83;101541.66;5027744;28;20033;-74
2022/07/29 06:47:38;;;;;;;3.53;2.60;;;;;;;16.24;70.49;101541.41;5029116;28;20053;-73
2022/07/29 06:50:04;;;;;;;6.05;2.50;;;;;;;16.25;70.48;101531.78;5028086;28;20532;-73
2022/07/29 06:52:30;;;;;;;5.50;2.70;;;;;;;16.26;70.15;101524.75;5028754;28;20041;-73
2022/07/29 06:54:55;;;;;;;3.28;2.50;;;;;;;16.29;70.11;101522.00;5031061;28;20095;-73
2022/07/29 06:57:21;;;;;;;3.90;2.42;;;;;;;16.31;69.99;101520.19;5030067;28;20017;-73
2022/07/29 06:59:47;;;;;;;3.50;2.30;;;;;;;16.30;69.71;101521.09;5030459;28;20025;-74
2022/07/29 07:02:12;;;;;;;4.93;2.53;;;;;;;16.33;68.75;101531.50;5029284;28;20041;-73
2022/07/29 07:04:37;;;;;;;4.80;2.50;;;;;;;16.34;68.96;101539.28;5030026;28;20481;-74
2022/07/29 07:07:02;;;;;;;4.63;2.80;;;;;;;16.31;68.05;101535.94;5027631;28;20439;-73
2022/07/29 07:09:28;;;;;;;4.00;2.30;;;;;;;16.31;68.57;101538.56;5027946;28;20063;-73
2022/07/29 07:11:53;;;;;;;5.75;3.20;;;;;;;16.31;68.78;101541.19;5031379;28;20037;-73
2022/07/29 07:14:19;;;;;;;3.42;2.35;;;;;;;16.34;69.29;101548.97;5029656;28;20036;-72
2022/07/29 07:16:44;;;;;;;3.92;2.45;;;;;;;16.32;68.73;101542.91;5031091;28;20472;-73
2022/07/29 07:19:09;;;;;;;3.85;2.30;;;;;;;16.33;69.00;101539.38;5029586;28;20112;-73
2022/07/29 07:21:35;;;;;;;3.60;2.40;;;;;;;16.37;69.01;101539.19;5028818;28;20033;-73
2022/07/29 07:24:00;;;;;;;3.75;2.47;;;;;;;16.39;69.23;101545.22;5029319;28;20025;-73
2022/07/29 07:26:26;;;;;;;3.47;2.22;;;;;;;16.47;68.90;101547.56;5027833;28;20071;-73
2022/07/29 07:28:52;;;;;;;3.70;2.40;;;;;;;16.49;68.57;101545.72;5027339;28;20140;-73
2022/07/29 07:31:17;;;;;;;5.20;2.40;;;;;;;16.49;68.19;101543.09;5027564;28;20120;-74
2022/07/29 07:33:42;;;;;;;3.65;2.30;;;;;;;16.47;68.79;101546.72;5028010;28;20468;-73
2022/07/29 07:36:08;;;;;;;4.55;2.50;;;;;;;16.46;68.64;101551.09;5028205;28;20035;-73
2022/07/29 07:38:33;;;;;;;3.88;2.58;;;;;;;16.48;68.85;101551.91;5025979;28;20041;-73
2022/07/29 07:40:59;;;;;;;3.63;2.17;;;;;;;16.56;68.40;101563.88;5027912;28;20052;-73
2022/07/29 07:43:24;;;;;;;2.92;2.10;;;;;;;16.66;68.73;101557.34;5027804;28;20440;-73
2022/07/29 07:45:49;;;;;;;3.05;2.10;;;;;;;16.72;68.13;101566.75;5027859;28;20479;-73
2022/07/29 07:48:14;;;;;;;3.65;2.10;;;;;;;16.77;67.93;101564.78;5029155;28;20035;-73
2022/07/29 07:50:40;;;;;;;2.63;1.90;;;;;;;16.82;67.74;101563.69;5028703;28;20030;-73
2022/07/29 07:53:05;;;;;;;3.65;2.15;;;;;;;16.88;68.66;101564.38;5028712;28;20033;-73
2022/07/29 07:55:30;;;;;;;5.20;2.80;;;;;;;16.86;68.01;101563.56;5028794;28;20036;-73
2022/07/29 07:57:56;;;;;;;3.25;2.50;;;;;;;16.81;68.02;101567.22;5029298;28;20067;-73
2022/07/29 08:00:21;;;;;;;4.18;2.88;;;;;;;16.80;67.83;101572.56;5028225;28;20073;-73
2022/07/29 08:02:46;;;;;;;3.75;2.28;;;;;;;16.79;67.63;101573.47;5027899;28;20037;-73
2022/07/29 08:05:16;;;;;;;3.38;2.40;;;;;;;16.77;67.89;101581.41;5027316;28;20385;-73
2022/07/29 08:07:42;;;;;;;4.72;2.63;;;;;;;16.74;67.93;101578.88;5027362;28;20036;-73
2022/07/29 08:10:08;;;;;;;4.50;2.65;;;;;;;16.71;67.95;101579.03;5027196;28;20065;-73
2022/07/29 08:12:33;;;;;;;3.78;2.28;;;;;;;16.73;67.70;101581.59;5041603;28;20216;-73
2022/07/29 08:14:58;;;;;;;3.28;2.05;;;;;;;16.80;67.57;101581.28;5028175;28;20048;-73
2022/07/29 08:17:24;;;;;;;4.38;2.88;;;;;;;16.87;67.41;101578.41;5028232;28;20376;-73
2022/07/29 08:19:49;;;;;;;3.25;2.20;;;;;;;16.94;67.55;101583.38;5029276;28;20029;-73
2022/07/29 08:22:15;;;;;;;3.92;2.97;;;;;;;16.98;67.38;101585.00;5026148;28;20025;-73
2022/07/29 08:24:43;;;;;;;3.22;2.50;;;;;;;17.01;67.15;101583.13;5027832;28;20029;-73
2022/07/29 08:27:12;;;;;;;4.30;2.80;;;;;;;17.05;67.09;101577.69;5028179;28;20048;-73
2022/07/29 08:29:39;;;;;;;3.08;2.53;;;;;;;17.13;68.03;101572.97;5027844;28;20507;-73
2022/07/29 08:32:05;;;;;;;4.22;3.00;;;;;;;17.18;67.54;101572.75;5029009;28;20026;-73
2022/07/29 08:34:30;;;;;;;4.43;3.00;;;;;;;17.22;68.07;101571.72;5030127;28;20025;-74
2022/07/29 08:36:56;;;;;;;4.65;3.22;;;;;;;17.30;68.78;101576.66;5026019;28;20042;-73
2022/07/29 08:39:22;;;;;;;4.60;3.45;;;;;;;17.32;66.03;101573.97;5023965;28;20026;-74
2022/07/29 08:41:48;;;;;;;5.47;3.83;;;;;;;17.31;66.94;101562.59;5031979;28;20036;-73
2022/07/29 08:44:21;;;;;;;5.82;3.50;;;;;;;17.34;66.77;101570.34;5029102;28;20413;-74
2022/07/29 08:46:47;;;;;;;4.47;3.33;;;;;;;17.36;66.90;101567.66;5029304;28;20029;-74
2022/07/29 08:49:12;;;;;;;4.68;3.00;;;;;;;17.39;66.28;101564.88;5028432;28;20021;-74
2022/07/29 08:51:39;;;;;;;8.35;4.65;;;;;;;17.38;67.77;101568.44;5029585;28;20037;-73
2022/07/29 08:54:06;;;;;;;7.97;4.88;;;;;;;17.28;66.85;101562.72;5031723;28;20112;-73
2022/07/29 08:56:32;;;;;;;6.57;4.80;;;;;;;17.25;69.38;101565.50;5026598;28;20033;-73
2022/07/29 08:58:58;;;;;;;5.65;4.38;;;;;;;17.34;68.72;101570.34;5030113;28;20033;-73
2022/07/29 09:01:26;;;;;;;7.15;3.72;;;;;;;17.49;66.91;101570.59;5029172;28;20048;-73
2022/07/29 09:03:55;;;;;;;4.55;3.20;;;;;;;17.63;66.60;101578.75;5028600;28;20033;-73
2022/07/29 09:06:21;;;;;;;6.00;3.53;;;;;;;17.72;65.65;101570.47;5029923;28;20542;-73
2022/07/29 09:08:46;;;;;;;3.47;2.78;;;;;;;17.83;66.50;101572.63;5030741;28;20473;-73
2022/07/29 09:11:13;;;;;;;5.30;3.50;;;;;;;17.90;65.56;101573.22;5028305;28;20033;-74
2022/07/29 09:13:38;;;;;;;7.28;3.28;;;;;;;17.95;65.09;101568.56;5027927;28;20116;-74
2022/07/29 09:16:04;;;;;;;4.82;2.80;;;;;;;18.03;64.88;101568.25;5022845;28;20112;-73
2022/07/29 09:18:37;;;;;;;5.30;3.25;;;;;;;18.10;66.44;101566.22;5023331;28;20065;-73
2022/07/29 09:24:11;;;;;;;6.07;3.42;;;;;;;18.25;65.16;101562.88;5021837;28;20088;-73
2022/07/29 09:26:42;;;;;;;6.32;3.90;;;;;;;18.32;65.45;101569.53;5024570;28;20026;-74
2022/07/29 09:29:15;;;;;;;5.20;3.45;;;;;;;18.37;64.70;101566.69;5023102;28;20025;-74
2022/07/29 09:31:46;;;;;;;4.47;2.70;;;;;;;18.44;62.77;101575.19;5024053;28;20083;-73
2022/07/29 09:34:15;;;;;;;4.07;2.80;;;;;;;18.48;62.21;101574.09;5025234;28;20112;-73
2022/07/29 09:36:40;;;;;;;4.38;2.30;;;;;;;18.53;62.62;101580.00;5025547;28;20018;-73
2022/07/29 09:39:05;;;;;;;3.53;2.92;;;;;;;18.58;61.35;101579.78;5023918;28;20022;-74
2022/07/29 09:41:44;;;;;;;6.07;3.15;;;;;;;18.58;62.71;101585.91;5023076;28;20155;-74
2022/07/29 09:44:10;;;;;;;5.18;3.55;;;;;;;18.64;61.59;101582.97;5024282;28;20108;-73
2022/07/29 09:46:35;;;;;;;4.53;2.85;;;;;;;18.73;63.25;101588.72;5024831;28;20104;-73
2022/07/29 09:49:09;;;;;;;4.72;3.17;;;;;;;18.80;62.31;101590.13;5025088;28;20029;-73
2022/07/29 09:51:34;;;;;;;6.97;3.97;;;;;;;18.85;62.04;101584.66;5024069;28;20037;-74
2022/07/29 09:54:03;;;;;;;4.80;3.90;;;;;;;18.89;62.69;101588.81;5018655;28;20040;-75
2022/07/29 09:56:39;;;;;;;5.90;3.70;;;;;;;18.97;62.63;101584.06;5022306;28;20021;-74
2022/07/29 09:59:08;;;;;;;5.95;4.68;;;;;;;18.95;60.91;101575.38;5023198;28;20033;-74
2022/07/29 10:01:35;;;;;;;6.43;4.15;;;;;;;19.01;62.25;101587.41;5023206;28;20022;-74
2022/07/29 10:04:01;;;;;;;7.13;4.18;;;;;;;19.08;60.81;101583.53;5023893;28;20130;-73
2022/07/29 10:06:26;;;;;;;6.28;4.35;;;;;;;19.19;61.93;101591.75;5022583;28;20026;-73
2022/07/29 10:08:52;;;;;;;5.07;3.55;;;;;;;19.31;61.09;101576.22;5026533;28;20210;-73
2022/07/29 10:11:18;;;;;;;4.50;3.03;;;;;;;19.41;59.34;101582.78;5027005;28;20029;-73
2022/07/29 10:13:45;;;;;;;6.45;3.60;;;;;;;19.47;60.19;101579.78;5024626;28;20546;-73
2022/07/29 10:16:11;;;;;;;4.88;2.85;;;;;;;19.50;59.68;101584.91;5025854;28;20037;-74
2022/07/29 10:18:44;;;;;;;4.22;2.88;;;;;;;19.51;59.53;101576.06;5025605;28;20052;-73
2022/07/29 10:21:10;;;;;;;6.15;3.53;;;;;;;19.53;59.03;101568.94;5027308;28;20404;-74
2022/07/29 10:23:36;;;;;;;5.93;3.45;;;;;;;19.55;59.44;101572.34;5025430;28;20036;-74
2022/07/29 10:26:03;;;;;;;5.72;3.35;;;;;;;19.58;58.48;101576.59;5027489;28;20384;-76
2022/07/29 10:28:30;;;;;;;5.20;3.28;;;;;;;19.62;60.66;101577.31;5026998;28;20079;-73
2022/07/29 10:31:01;;;;;;;5.80;3.20;;;;;;;19.68;57.51;101566.41;5024803;28;20021;-73
2022/07/29 10:33:55;;;;;;;6.20;2.78;;;;;;;19.75;59.19;101569.59;5024051;28;20044;-73
2022/07/29 10:36:51;;;;;;;5.22;3.25;;;;;;;19.82;58.24;101557.78;5026632;28;20053;-73
2022/07/29 10:39:58;;;;;;;5.65;3.30;;;;;;;19.85;59.38;101562.91;5026535;28;20046;-73
2022/07/29 10:42:25;;;;;;;4.20;2.70;;;;;;;19.90;57.24;101560.88;5013406;28;20048;-74
2022/07/29 10:44:52;;;;;;;5.38;2.60;;;;;;;19.94;57.37;101567.69;5022604;28;20025;-73
2022/07/29 10:47:24;;;;;;;3.60;2.42;;;;;;;19.99;56.64;101570.09;5023252;28;20284;-74
2022/07/29 10:50:00;;;;;;;3.65;2.70;;;;;;;20.04;56.55;101567.22;5021335;28;20083;-73
2022/07/29 10:52:56;;;;;;;5.07;2.65;;;;;;;20.07;56.47;101567.91;5026045;28;20076;-74
2022/07/29 10:55:48;;;;;;;4.60;2.50;;;;;;;20.10;56.25;101567.72;5026672;28;20025;-74
2022/07/29 10:58:20;;;;;;;3.72;2.53;;;;;;;20.17;55.45;101570.88;5024508;28;20231;-74
2022/07/29 11:00:48;;;;;;;5.10;2.80;;;;;;;20.19;55.84;101560.22;5024736;28;20037;-74
2022/07/29 11:03:43;;;;;;;4.80;2.50;;;;;;;20.24;56.70;101566.13;5025084;28;20095;-74
2022/07/29 11:06:09;;;;;;;3.28;2.30;;;;;;;20.25;55.52;101565.19;5025354;28;20087;-74
2022/07/29 11:08:34;;;;;;;4.28;2.60;;;;;;;20.28;54.34;101562.38;5029287;28;20029;-73
2022/07/29 11:11:18;;;;;;;4.00;2.58;;;;;;;20.32;56.21;101562.13;5026887;28;20099;-74
2022/07/29 11:13:45;;;;;;;4.50;2.60;;;;;;;20.33;53.79;101557.66;5021765;28;20029;-73
2022/07/29 11:16:11;;;;;;;4.10;2.45;;;;;;;20.36;54.55;101554.84;5025587;28;20029;-73
2022/07/29 11:18:36;;;;;;;5.25;2.63;;;;;;;20.41;56.59;101550.19;5028781;28;20083;-73
2022/07/29 11:21:01;;;;;;;5.38;2.70;;;;;;;20.48;55.50;101545.41;5025543;28;20021;-74
2022/07/29 11:23:28;;;;;;;4.05;2.30;;;;;;;20.52;54.19;101551.34;5024961;28;20025;-74
2022/07/29 11:26:24;;;;;;;2.95;1.92;;;;;;;20.55;54.93;101548.53;5025476;28;20044;-73
2022/07/29 11:28:50;;;;;;;4.75;2.80;;;;;;;20.58;52.41;101553.66;5025347;28;21425;-74
2022/07/29 11:31:19;;;;;;;3.53;2.13;;;;;;;20.58;54.13;101556.31;5026144;28;20492;-73
2022/07/29 11:33:45;;;;;;;4.10;2.15;;;;;;;20.61;52.74;101550.84;5023293;28;20057;-73
2022/07/29 11:36:14;;;;;;;2.92;1.67;;;;;;;20.63;51.83;101554.25;5026140;28;20026;-74